createdAt,value
2018-05-31T00:01:30.095Z,81.70
2018-05-31T00:03:57.738Z,81.70
2018-05-31T00:06:25.330Z,81.80
2018-05-31T00:08:54.529Z,82.00
2018-05-31T00:11:22.080Z,82.00
2018-05-31T00:13:49.979Z,82.10
2018-05-31T00:16:18.741Z,82.00
2018-05-31T00:18:46.464Z,82.00
2018-05-31T00:21:14.051Z,82.20
2018-05-31T00:23:43.056Z,82.20
2018-05-31T00:26:10.618Z,82.30
2018-05-31T00:28:38.948Z,82.80
2018-05-31T00:31:07.470Z,82.80
2018-05-31T00:33:37.726Z,83.00
2018-05-31T00:36:06.471Z,83.00
2018-05-31T00:38:34.063Z,83.10
2018-05-31T00:41:02.996Z,83.00
2018-05-31T00:43:30.971Z,83.00
2018-05-31T00:45:58.607Z,83.20
2018-05-31T00:48:26.163Z,83.20
2018-05-31T00:50:54.762Z,83.20
2018-05-31T00:53:23.039Z,83.40
2018-05-31T00:56:03.188Z,84.30
2018-05-31T00:58:32.897Z,83.50
2018-05-31T01:01:01.472Z,83.40
2018-05-31T01:03:29.875Z,83.50
2018-05-31T01:05:58.691Z,83.60
2018-05-31T01:08:28.675Z,83.40
2018-05-31T01:10:57.207Z,83.00
2018-05-31T01:13:25.368Z,82.90
2018-05-31T01:15:53.731Z,83.00
2018-05-31T01:18:21.559Z,83.30
2018-05-31T01:20:49.531Z,83.50
2018-05-31T01:23:17.980Z,83.30
2018-05-31T01:25:46.671Z,83.30
2018-05-31T01:28:14.212Z,83.40
2018-05-31T01:30:41.991Z,83.30
2018-05-31T01:33:09.582Z,83.50
2018-05-31T01:35:37.172Z,83.80
2018-05-31T01:38:16.558Z,83.80
2018-05-31T01:40:44.116Z,84.00
2018-05-31T01:43:11.744Z,84.20
2018-05-31T01:45:39.701Z,84.20
2018-05-31T01:48:07.746Z,84.20
2018-05-31T01:50:36.230Z,84.30
2018-05-31T01:53:03.838Z,84.50
2018-05-31T01:55:32.311Z,84.60
2018-05-31T01:58:00.635Z,85.00
2018-05-31T02:00:28.929Z,85.10
2018-05-31T02:02:57.796Z,85.00
2018-05-31T02:05:25.585Z,85.10
2018-05-31T02:07:53.185Z,85.20
2018-05-31T02:10:20.731Z,85.30
2018-05-31T02:12:48.878Z,85.70
2018-05-31T02:15:17.879Z,85.60
2018-05-31T02:17:46.358Z,85.50
2018-05-31T02:20:14.199Z,85.40
2018-05-31T02:22:41.820Z,85.60
2018-05-31T02:25:10.174Z,85.70
2018-05-31T02:27:37.791Z,85.80
2018-05-31T02:30:06.627Z,85.90
2018-05-31T02:32:35.295Z,86.40
2018-05-31T02:35:02.983Z,86.40
2018-05-31T02:37:31.369Z,86.50
2018-05-31T02:39:59.739Z,86.20
2018-05-31T02:42:27.386Z,86.20
2018-05-31T02:44:54.941Z,86.20
2018-05-31T02:47:22.826Z,86.10
2018-05-31T02:49:51.183Z,86.20
2018-05-31T02:52:19.603Z,86.10
2018-05-31T02:54:47.167Z,86.10
2018-05-31T02:57:14.750Z,86.30
2018-05-31T02:59:42.303Z,86.10
2018-05-31T03:02:09.835Z,86.10
2018-05-31T03:04:37.369Z,86.00
2018-05-31T03:07:04.939Z,86.00
2018-05-31T03:09:33.232Z,86.20
2018-05-31T03:12:01.110Z,86.20
2018-05-31T03:14:28.730Z,86.30
2018-05-31T03:16:56.655Z,86.10
2018-05-31T03:19:24.520Z,86.30
2018-05-31T03:21:53.099Z,86.10
2018-05-31T03:24:20.922Z,86.00
2018-05-31T03:26:48.840Z,86.10
2018-05-31T03:29:17.233Z,86.00
2018-05-31T03:31:44.823Z,85.90
2018-05-31T03:34:12.361Z,85.80
2018-05-31T03:36:39.950Z,85.70
2018-05-31T03:39:08.647Z,85.80
2018-05-31T03:41:36.480Z,85.80
2018-05-31T03:44:06.993Z,85.90
2018-05-31T03:46:35.683Z,85.80
2018-05-31T03:49:05.267Z,86.00
2018-05-31T03:51:32.878Z,85.90
2018-05-31T03:54:00.670Z,85.80
2018-05-31T03:56:29.864Z,85.90
2018-05-31T03:58:58.999Z,85.90
2018-05-31T04:01:28.614Z,85.90
2018-05-31T04:03:56.782Z,85.90
2018-05-31T04:06:25.107Z,85.90
2018-05-31T04:08:52.687Z,85.90
2018-05-31T04:11:20.221Z,86.00
2018-05-31T04:13:49.328Z,85.90
2018-05-31T04:16:17.202Z,85.90
2018-05-31T04:18:44.917Z,85.80
2018-05-31T04:21:12.499Z,85.80
2018-05-31T04:23:40.922Z,86.50
2018-05-31T04:26:08.695Z,85.60
2018-05-31T04:28:36.564Z,85.60
2018-05-31T04:31:04.225Z,85.50
2018-05-31T04:33:32.081Z,85.50
2018-05-31T04:35:59.638Z,85.60
2018-05-31T04:38:28.459Z,85.60
2018-05-31T04:40:56.004Z,85.50
2018-05-31T04:43:24.358Z,85.50
2018-05-31T04:45:52.023Z,85.50
2018-05-31T04:48:20.542Z,85.30
2018-05-31T04:50:49.123Z,85.20
2018-05-31T04:53:16.711Z,85.10
2018-05-31T04:55:45.903Z,84.90
2018-05-31T04:58:14.216Z,84.40
2018-05-31T05:00:41.785Z,84.30
2018-05-31T05:03:10.906Z,84.30
2018-05-31T05:05:38.579Z,84.50
2018-05-31T05:08:06.124Z,83.70
2018-05-31T05:10:34.811Z,83.50
2018-05-31T05:13:02.719Z,83.30
2018-05-31T05:15:31.019Z,82.20
2018-05-31T05:17:59.698Z,82.20
2018-05-31T05:20:27.570Z,82.40
2018-05-31T05:22:55.147Z,82.20
2018-05-31T05:25:23.591Z,81.90
2018-05-31T05:27:52.104Z,81.70
2018-05-31T05:30:19.676Z,81.60
2018-05-31T05:32:48.143Z,81.30
2018-05-31T05:35:17.167Z,81.00
2018-05-31T05:37:46.975Z,80.10
2018-05-31T05:40:14.558Z,80.00
2018-05-31T05:42:42.250Z,79.00
2018-05-31T05:45:09.787Z,78.50
2018-05-31T05:47:38.488Z,78.70
2018-05-31T05:50:06.071Z,78.40
2018-05-31T05:52:34.524Z,78.40
2018-05-31T05:55:04.072Z,77.90
2018-05-31T05:57:32.138Z,77.80
2018-05-31T06:00:00.507Z,77.80
2018-05-31T06:02:29.791Z,76.90
2018-05-31T06:04:57.532Z,76.60
2018-05-31T06:07:25.099Z,75.60
2018-05-31T06:09:52.649Z,73.40
2018-05-31T06:12:20.541Z,73.20
2018-05-31T06:14:48.987Z,72.10
2018-05-31T06:17:16.591Z,72.30
2018-05-31T06:19:44.230Z,70.40
2018-05-31T06:22:13.626Z,65.30
2018-05-31T06:24:42.128Z,60.70
2018-05-31T06:27:09.723Z,57.00
2018-05-31T06:29:37.279Z,55.50
2018-05-31T06:32:04.812Z,54.10
2018-05-31T06:34:33.106Z,50.70
2018-05-31T06:37:00.623Z,49.30
2018-05-31T06:39:29.595Z,48.30
2018-05-31T06:41:58.963Z,46.60
2018-05-31T06:44:27.068Z,46.00
2018-05-31T06:46:55.415Z,43.20
2018-05-31T06:49:22.939Z,44.50
2018-05-31T06:51:50.465Z,43.90
2018-05-31T06:54:18.038Z,42.80
2018-05-31T06:56:45.531Z,43.00
2018-05-31T06:59:13.064Z,40.40
2018-05-31T07:01:40.988Z,40.20
2018-05-31T07:04:08.536Z,40.00
2018-05-31T07:06:36.063Z,39.50
2018-05-31T07:09:04.111Z,37.90
2018-05-31T07:11:32.059Z,36.40
2018-05-31T07:13:59.578Z,34.70
2018-05-31T07:16:27.211Z,34.90
2018-05-31T07:18:55.133Z,34.90
2018-05-31T07:21:22.676Z,35.70
2018-05-31T07:23:50.193Z,34.80
2018-05-31T07:26:17.710Z,35.70
2018-05-31T07:28:45.236Z,37.10
2018-05-31T07:31:13.208Z,38.80
2018-05-31T07:33:40.783Z,40.10
2018-05-31T07:36:09.183Z,41.20
2018-05-31T07:38:36.924Z,42.70
2018-05-31T07:41:04.695Z,42.90
2018-05-31T07:43:32.803Z,40.80
2018-05-31T07:46:04.444Z,40.70
2018-05-31T07:48:32.163Z,39.40
2018-05-31T07:50:59.703Z,39.00
2018-05-31T07:53:29.293Z,38.40
2018-05-31T07:55:58.017Z,36.40
2018-05-31T07:58:27.271Z,35.50
2018-05-31T08:00:55.864Z,35.30
2018-05-31T08:03:24.344Z,34.60
2018-05-31T08:05:52.779Z,33.70
2018-05-31T08:08:20.315Z,33.70
2018-05-31T08:10:48.343Z,34.20
2018-05-31T08:13:15.867Z,34.60
2018-05-31T08:15:43.399Z,35.90
2018-05-31T08:18:10.925Z,35.40
2018-05-31T08:20:38.507Z,34.10
2018-05-31T08:23:06.019Z,32.70
2018-05-31T08:25:33.532Z,31.00
2018-05-31T08:28:01.072Z,31.60
2018-05-31T08:30:28.635Z,30.50
2018-05-31T08:32:56.155Z,29.40
2018-05-31T08:35:23.663Z,29.90
2018-05-31T08:37:51.190Z,29.60
2018-05-31T08:40:18.724Z,29.30
2018-05-31T08:42:46.531Z,28.00
2018-05-31T08:45:14.051Z,27.90
2018-05-31T08:47:41.576Z,29.10
2018-05-31T08:50:09.090Z,27.50
2018-05-31T08:52:36.612Z,27.10
2018-05-31T08:55:04.139Z,28.10
2018-05-31T08:57:31.662Z,27.30
2018-05-31T08:59:59.472Z,28.00
2018-05-31T09:02:26.998Z,29.10
2018-05-31T09:04:54.517Z,28.40
2018-05-31T09:07:22.032Z,27.60
2018-05-31T09:09:49.555Z,28.20
2018-05-31T09:12:17.074Z,27.60
2018-05-31T09:14:44.606Z,27.80
2018-05-31T09:17:12.138Z,29.00
2018-05-31T09:19:40.440Z,30.20
2018-05-31T09:22:07.987Z,30.30
2018-05-31T09:24:35.516Z,30.60
2018-05-31T09:27:03.051Z,32.90
2018-05-31T09:29:30.603Z,33.30
2018-05-31T09:31:58.479Z,34.00
2018-05-31T09:34:26.010Z,35.10
2018-05-31T09:36:54.205Z,36.80
2018-05-31T09:39:21.763Z,37.20
2018-05-31T09:41:49.353Z,36.90
2018-05-31T09:44:16.898Z,37.90
2018-05-31T09:46:45.182Z,37.60
2018-05-31T09:49:12.717Z,37.50
2018-05-31T09:51:40.253Z,36.50
2018-05-31T09:54:07.804Z,37.60
2018-05-31T09:56:35.339Z,37.40
2018-05-31T09:59:02.884Z,36.60
2018-05-31T10:01:30.422Z,37.20
2018-05-31T10:03:57.943Z,38.90
2018-05-31T10:06:25.458Z,39.70
2018-05-31T10:08:53.003Z,40.40
2018-05-31T10:11:20.521Z,40.30
2018-05-31T10:13:48.050Z,40.10
2018-05-31T10:16:15.561Z,39.20
2018-05-31T10:18:43.075Z,38.00
2018-05-31T10:21:10.591Z,39.20
2018-05-31T10:23:38.112Z,40.30
2018-05-31T10:26:05.623Z,40.90
2018-05-31T10:28:33.135Z,41.40
2018-05-31T10:31:00.681Z,41.60
2018-05-31T10:33:28.210Z,42.00
2018-05-31T10:35:55.725Z,41.80
2018-05-31T10:38:23.268Z,43.00
2018-05-31T10:40:50.787Z,42.70
2018-05-31T10:43:18.300Z,43.10
2018-05-31T10:45:45.892Z,42.60
2018-05-31T10:48:13.408Z,42.90
2018-05-31T10:50:40.929Z,42.10
2018-05-31T10:53:09.215Z,42.40
2018-05-31T10:55:36.736Z,42.40
2018-05-31T10:58:04.255Z,43.00
2018-05-31T11:00:31.778Z,43.70
2018-05-31T11:02:59.299Z,44.10
2018-05-31T11:05:26.813Z,44.40
2018-05-31T11:07:54.339Z,43.50
2018-05-31T11:10:21.854Z,44.70
2018-05-31T11:12:49.379Z,45.20
2018-05-31T11:15:16.919Z,44.90
2018-05-31T11:17:44.436Z,46.70
2018-05-31T11:20:12.000Z,46.30
2018-05-31T11:22:39.832Z,46.50
2018-05-31T11:25:07.394Z,45.30
2018-05-31T11:27:34.915Z,45.90
2018-05-31T11:30:02.491Z,45.60
2018-05-31T11:32:30.928Z,45.00
2018-05-31T11:34:58.452Z,43.00
2018-05-31T11:37:25.971Z,42.90
2018-05-31T11:39:53.494Z,42.60
2018-05-31T11:42:21.032Z,43.20
2018-05-31T11:44:49.347Z,43.00
2018-05-31T11:47:16.867Z,42.90
2018-05-31T11:49:44.383Z,43.50
2018-05-31T11:52:11.915Z,44.70
2018-05-31T11:54:39.452Z,45.40
2018-05-31T11:57:06.970Z,45.70
2018-05-31T11:59:34.507Z,45.80
2018-05-31T12:02:02.044Z,46.90
2018-05-31T12:04:29.577Z,47.00
2018-05-31T12:06:57.113Z,47.40
2018-05-31T12:09:24.631Z,46.70
2018-05-31T12:11:52.952Z,45.10
2018-05-31T12:14:20.462Z,45.10
2018-05-31T12:16:47.979Z,46.20
2018-05-31T12:19:15.506Z,46.10
2018-05-31T12:21:43.041Z,47.50
2018-05-31T12:24:10.576Z,46.90
2018-05-31T12:26:38.152Z,47.50
2018-05-31T12:29:05.664Z,47.70
2018-05-31T12:31:33.178Z,47.40
2018-05-31T12:34:00.695Z,46.80
2018-05-31T12:36:28.212Z,45.20
2018-05-31T12:38:56.499Z,45.50
2018-05-31T12:41:24.025Z,45.50
2018-05-31T12:43:51.543Z,45.60
2018-05-31T12:46:19.063Z,45.90
2018-05-31T12:48:47.339Z,48.10
2018-05-31T12:51:14.851Z,48.10
2018-05-31T12:53:42.379Z,47.80
2018-05-31T12:56:09.912Z,46.90
2018-05-31T12:58:38.212Z,48.60
2018-05-31T13:01:05.731Z,48.50
2018-05-31T13:03:33.255Z,47.70
2018-05-31T13:06:00.839Z,48.30
2018-05-31T13:08:28.346Z,46.90
2018-05-31T13:10:55.897Z,48.70
2018-05-31T13:13:23.422Z,46.80
2018-05-31T13:15:50.944Z,47.70
2018-05-31T13:18:18.699Z,47.00
2018-05-31T13:20:46.220Z,47.00
2018-05-31T13:23:13.753Z,47.80
2018-05-31T13:25:41.294Z,47.10
2018-05-31T13:28:09.431Z,47.70
2018-05-31T13:30:37.726Z,49.20
2018-05-31T13:33:05.271Z,49.90
2018-05-31T13:35:32.794Z,48.70
2018-05-31T13:38:00.334Z,48.80
2018-05-31T13:40:27.854Z,49.60
2018-05-31T13:42:55.399Z,48.50
2018-05-31T13:45:22.939Z,48.70
2018-05-31T13:47:50.494Z,48.70
2018-05-31T13:50:18.017Z,48.40
2018-05-31T13:52:45.581Z,48.20
2018-05-31T13:55:13.117Z,48.90
2018-05-31T13:57:40.632Z,48.30
2018-05-31T14:00:08.161Z,48.50
2018-05-31T14:02:35.684Z,48.90
2018-05-31T14:05:03.199Z,48.10
2018-05-31T14:07:30.723Z,47.70
2018-05-31T14:09:59.048Z,47.70
2018-05-31T14:12:26.608Z,47.40
2018-05-31T14:14:54.146Z,47.30
2018-05-31T14:17:22.584Z,47.10
2018-05-31T14:19:50.118Z,47.20
2018-05-31T14:22:17.635Z,46.30
2018-05-31T14:24:45.163Z,47.10
2018-05-31T14:27:12.699Z,48.30
2018-05-31T14:29:40.988Z,49.00
2018-05-31T14:32:08.528Z,48.90
2018-05-31T14:34:36.055Z,49.40
2018-05-31T14:37:03.579Z,50.20
2018-05-31T14:39:31.107Z,50.90
2018-05-31T14:41:58.658Z,51.00
2018-05-31T14:44:26.234Z,51.50
2018-05-31T14:46:53.791Z,52.40
2018-05-31T14:49:22.204Z,52.80
2018-05-31T14:51:50.943Z,53.90
2018-05-31T14:54:19.455Z,55.30
2018-05-31T14:56:47.947Z,56.50
2018-05-31T14:59:16.399Z,56.10
2018-05-31T15:01:44.639Z,57.20
2018-05-31T15:04:12.447Z,58.10
2018-05-31T15:06:39.970Z,58.40
2018-05-31T15:09:08.855Z,57.90
2018-05-31T15:11:36.375Z,59.00
2018-05-31T15:14:05.287Z,59.30
2018-05-31T15:16:32.811Z,65.40
2018-05-31T15:19:00.351Z,67.70
2018-05-31T15:21:28.107Z,68.30
2018-05-31T15:23:57.006Z,72.60
2018-05-31T15:26:24.555Z,71.00
2018-05-31T15:28:52.112Z,71.50
2018-05-31T15:31:22.464Z,73.20
2018-05-31T15:33:50.891Z,72.40
2018-05-31T15:36:19.287Z,74.50
2018-05-31T15:38:47.605Z,75.60
2018-05-31T15:41:16.181Z,75.50
2018-05-31T15:43:44.531Z,75.10
2018-05-31T15:46:12.295Z,74.30
2018-05-31T15:48:40.339Z,73.50
2018-05-31T15:51:08.776Z,71.80
2018-05-31T15:53:36.850Z,72.30
2018-05-31T15:56:04.641Z,72.90
2018-05-31T15:58:34.071Z,72.30
2018-05-31T16:01:02.766Z,72.80
2018-05-31T16:03:30.569Z,72.30
2018-05-31T16:05:58.095Z,72.80
2018-05-31T16:08:26.484Z,72.90
2018-05-31T16:10:55.731Z,72.90
2018-05-31T16:13:23.539Z,72.70
2018-05-31T16:15:51.880Z,72.90
2018-05-31T16:18:19.404Z,72.80
2018-05-31T16:20:46.972Z,72.60
2018-05-31T16:23:14.579Z,72.90
2018-05-31T16:25:43.053Z,74.00
2018-05-31T16:28:11.400Z,73.10
2018-05-31T16:30:38.959Z,73.20
2018-05-31T16:33:06.807Z,73.90
2018-05-31T16:35:35.850Z,73.20
2018-05-31T16:38:03.399Z,73.90
2018-05-31T16:40:30.947Z,73.90
2018-05-31T16:42:59.407Z,74.40
2018-05-31T16:45:26.959Z,74.90
2018-05-31T16:47:55.432Z,73.60
2018-05-31T16:50:22.975Z,73.50
2018-05-31T16:52:50.498Z,73.30
2018-05-31T16:55:18.020Z,73.40
2018-05-31T16:57:45.601Z,72.70
2018-05-31T17:00:13.975Z,72.80
2018-05-31T17:02:42.763Z,73.40
2018-05-31T17:05:10.311Z,72.90
2018-05-31T17:07:38.665Z,73.30
2018-05-31T17:10:06.191Z,73.00
2018-05-31T17:12:33.771Z,73.10
2018-05-31T17:15:01.696Z,73.50
2018-05-31T17:17:30.043Z,73.70
2018-05-31T17:19:57.566Z,74.30
2018-05-31T17:22:25.954Z,73.60
2018-05-31T17:24:53.524Z,74.00
2018-05-31T17:27:21.062Z,75.10
2018-05-31T17:29:48.599Z,75.20
2018-05-31T17:32:16.128Z,75.30
2018-05-31T17:34:44.438Z,75.50
2018-05-31T17:37:11.959Z,76.10
2018-05-31T17:39:39.482Z,75.80
2018-05-31T17:42:07.019Z,75.90
2018-05-31T17:44:34.553Z,76.50
2018-05-31T17:47:02.071Z,76.30
2018-05-31T17:49:29.587Z,76.30
2018-05-31T17:51:57.124Z,76.80
2018-05-31T17:54:24.661Z,76.40
2018-05-31T17:56:52.192Z,76.90
2018-05-31T17:59:19.746Z,77.10
2018-05-31T18:01:47.516Z,77.00
2018-05-31T18:04:15.041Z,77.20
2018-05-31T18:06:42.566Z,76.90
2018-05-31T18:09:10.082Z,77.20
2018-05-31T18:11:38.555Z,77.20
2018-05-31T18:14:06.108Z,77.70
2018-05-31T18:16:33.699Z,78.50
2018-05-31T18:19:02.028Z,78.30
2018-05-31T18:21:29.555Z,77.90
2018-05-31T18:23:58.718Z,78.30
2018-05-31T18:26:26.287Z,78.40
2018-05-31T18:28:54.899Z,79.10
2018-05-31T18:31:22.531Z,79.10
2018-05-31T18:33:52.175Z,79.50
2018-05-31T18:36:20.442Z,80.00
2018-05-31T18:38:49.519Z,79.30
2018-05-31T18:41:17.088Z,79.40
2018-05-31T18:43:44.615Z,79.50
2018-05-31T18:46:13.384Z,79.70
2018-05-31T18:48:41.817Z,80.10
2018-05-31T18:51:09.345Z,81.10
2018-05-31T18:53:37.219Z,81.10
2018-05-31T18:56:04.744Z,80.40
2018-05-31T18:58:32.269Z,80.60
2018-05-31T19:00:59.796Z,80.90
2018-05-31T19:03:28.082Z,81.20
2018-05-31T19:05:55.635Z,81.20
2018-05-31T19:08:23.159Z,81.30
2018-05-31T19:10:50.780Z,81.60
2018-05-31T19:13:23.968Z,81.50
2018-05-31T19:15:53.036Z,81.60
2018-05-31T19:18:26.564Z,81.80
2018-05-31T19:20:55.283Z,81.90
2018-05-31T19:23:23.615Z,82.10
2018-05-31T19:25:51.183Z,81.90
2018-05-31T19:28:19.923Z,82.20
2018-05-31T19:30:53.044Z,82.30
2018-05-31T19:33:22.968Z,82.50
2018-05-31T19:35:56.520Z,82.50
2018-05-31T19:38:25.111Z,82.70
2018-05-31T19:40:53.948Z,82.60
2018-05-31T19:43:28.771Z,82.90
2018-05-31T19:46:00.033Z,82.80
2018-05-31T19:48:28.972Z,82.70
2018-05-31T19:50:57.606Z,83.00
2018-05-31T19:53:32.331Z,83.20
2018-05-31T19:56:01.104Z,83.10
2018-05-31T19:58:34.526Z,82.90
2018-05-31T20:01:07.720Z,83.10
2018-05-31T20:03:36.059Z,83.20
2018-05-31T20:06:04.068Z,83.10
2018-05-31T20:08:33.672Z,83.20
2018-05-31T20:11:01.427Z,83.10
2018-05-31T20:13:30.091Z,83.20
2018-05-31T20:15:59.035Z,83.00
2018-05-31T20:18:27.324Z,83.90
2018-05-31T20:20:54.926Z,83.30
2018-05-31T20:23:23.258Z,83.40
2018-05-31T20:25:52.304Z,83.50
2018-05-31T20:28:21.437Z,83.50
2018-05-31T20:30:51.078Z,84.10
2018-05-31T20:33:18.595Z,84.10
2018-05-31T20:35:47.180Z,84.20
2018-05-31T20:38:15.696Z,84.50
2018-05-31T20:40:44.700Z,84.30
2018-05-31T20:43:13.498Z,83.80
2018-05-31T20:45:41.142Z,84.20
2018-05-31T20:48:08.815Z,84.20
2018-05-31T20:50:37.285Z,84.20
2018-05-31T20:53:05.969Z,84.50
2018-05-31T20:55:33.546Z,85.30
2018-05-31T20:58:01.067Z,84.50
2018-05-31T21:00:30.422Z,84.30
2018-05-31T21:02:57.947Z,84.30
2018-05-31T21:05:26.286Z,84.40
2018-05-31T21:07:54.631Z,84.50
2018-05-31T21:10:22.214Z,84.50
2018-05-31T21:12:50.341Z,84.60
2018-05-31T21:15:18.889Z,84.30
2018-05-31T21:17:47.339Z,84.60
2018-05-31T21:20:14.928Z,84.80
2018-05-31T21:22:43.345Z,84.60
2018-05-31T21:25:11.819Z,84.90
2018-05-31T21:27:40.148Z,85.00
2018-05-31T21:30:09.207Z,85.20
2018-05-31T21:32:37.380Z,85.20
2018-05-31T21:35:05.954Z,85.50
2018-05-31T21:37:34.976Z,85.20
2018-05-31T21:40:02.556Z,85.30
2018-05-31T21:42:30.366Z,85.30
2018-05-31T21:44:59.053Z,85.50
2018-05-31T21:47:28.159Z,85.40
2018-05-31T21:49:56.035Z,85.70
2018-05-31T21:52:25.261Z,85.70
2018-05-31T21:54:54.104Z,86.10
2018-05-31T21:57:23.513Z,86.20
2018-05-31T21:59:52.759Z,86.10
2018-05-31T22:02:21.916Z,86.30
2018-05-31T22:04:50.343Z,86.10
2018-05-31T22:07:18.652Z,86.00
2018-05-31T22:09:46.178Z,86.10
2018-05-31T22:12:13.712Z,86.20
2018-05-31T22:14:42.686Z,86.00
2018-05-31T22:17:11.999Z,86.00
2018-05-31T22:19:40.739Z,86.10
2018-05-31T22:22:10.028Z,85.80
2018-05-31T22:24:37.557Z,86.10
2018-05-31T22:27:05.668Z,86.60
2018-05-31T22:29:33.640Z,86.90
2018-05-31T22:32:01.221Z,86.90
2018-05-31T22:34:29.922Z,86.80
2018-05-31T22:36:58.122Z,87.10
2018-05-31T22:39:25.956Z,87.20
2018-05-31T22:41:53.584Z,87.20
2018-05-31T22:44:22.596Z,87.20
2018-05-31T22:46:50.208Z,87.20
2018-05-31T22:49:19.054Z,87.40
2018-05-31T22:51:48.094Z,87.00
2018-05-31T22:54:16.432Z,87.00
2018-05-31T22:56:44.063Z,87.00
2018-05-31T22:59:11.709Z,86.60
2018-05-31T23:01:40.068Z,86.40
2018-05-31T23:04:07.908Z,86.40
2018-05-31T23:06:35.811Z,86.30
2018-05-31T23:09:04.871Z,86.40
2018-05-31T23:11:32.455Z,86.50
2018-05-31T23:14:01.992Z,86.90
2018-05-31T23:16:29.875Z,86.90
2018-05-31T23:18:57.525Z,87.20
2018-05-31T23:21:26.687Z,87.40
2018-05-31T23:23:54.351Z,87.40
2018-05-31T23:26:22.807Z,87.20
2018-05-31T23:28:51.100Z,87.10
2018-05-31T23:31:19.317Z,87.10
2018-05-31T23:33:46.883Z,86.90
2018-05-31T23:36:15.290Z,87.00
2018-05-31T23:38:42.955Z,87.00
2018-05-31T23:41:10.544Z,87.00
2018-05-31T23:43:38.955Z,87.00
2018-05-31T23:46:08.120Z,87.60
2018-05-31T23:48:35.872Z,87.20
2018-05-31T23:51:03.435Z,87.10
2018-05-31T23:53:32.031Z,87.10
2018-05-31T23:55:59.590Z,87.10
2018-05-31T23:58:27.203Z,86.80
